METAR Data
IDs: Format: Raw Decoded Include TAF

Data at: 0702 UTC 18 Sep 2021

KBLI 180653Z 18006KT 5SM RA BR OVC070 15/14 A2954 RMK AO2 SLP008 P0013 T01500139